Time;durP1;ratioP1;P1;durP2;ratioP2;P2;SDS_P1;SDS_P2;PMS_P1;PMS_P2;Temp;Humidity;BMP_temperature;BMP_pressure;BME280_temperature;BME280_humidity;BME280_pressure;Samples;Min_cycle;Max_cycle;Signal;HPM_P1;HPM_P2
2021/12/04 00:00:05;;;;;;;13.00;7.10;;;1.40;99.90;;;;;;5050698;28;20075;-67
2021/12/04 00:02:32;;;;;;;15.67;6.90;;;1.50;99.90;;;;;;5050717;28;20090;-67
2021/12/04 00:05:02;;;;;;;14.47;7.60;;;1.40;99.90;;;;;;5050115;28;20141;-67
2021/12/04 00:07:32;;;;;;;14.67;7.67;;;1.50;99.90;;;;;;5050732;28;20057;-67
2021/12/04 00:10:01;;;;;;;15.60;7.40;;;1.50;99.90;;;;;;5050566;28;20053;-67
2021/12/04 00:12:32;;;;;;;16.43;8.07;;;1.50;99.90;;;;;;5050291;28;20112;-67
2021/12/04 00:15:01;;;;;;;19.60;8.70;;;1.50;99.90;;;;;;5049403;28;20045;-67
2021/12/04 00:17:28;;;;;;;15.43;8.03;;;1.50;99.90;;;;;;5050545;28;20044;-67
2021/12/04 00:19:55;;;;;;;15.83;8.17;;;1.50;99.90;;;;;;5050241;28;20049;-67
2021/12/04 00:22:22;;;;;;;14.87;7.93;;;1.60;99.90;;;;;;5049826;28;20092;-67
2021/12/04 00:24:49;;;;;;;16.67;7.57;;;1.60;99.90;;;;;;5049755;28;20095;-67
2021/12/04 00:27:16;;;;;;;14.07;7.73;;;1.60;99.90;;;;;;5049955;28;20114;-67
2021/12/04 00:29:45;;;;;;;17.10;8.20;;;1.60;99.90;;;;;;5049875;28;20045;-67
2021/12/04 00:32:15;;;;;;;19.40;8.73;;;1.60;99.90;;;;;;5050462;28;20091;-67
2021/12/04 00:34:45;;;;;;;15.63;7.37;;;1.60;99.90;;;;;;5051972;28;20118;-67
2021/12/04 00:37:36;;;;;;;15.63;7.93;;;1.60;99.90;;;;;;5051971;28;20452;-67
2021/12/04 00:51:07;;;;;;;20.27;9.83;;;1.60;99.90;;;;;;5048740;28;20037;-68
2021/12/04 00:53:34;;;;;;;16.70;7.83;;;1.60;99.90;;;;;;5049610;28;20049;-68
2021/12/04 00:56:01;;;;;;;16.40;8.50;;;1.70;99.90;;;;;;5052247;28;20523;-67
2021/12/04 00:58:28;;;;;;;17.17;8.37;;;1.60;99.90;;;;;;5053400;28;20448;-67
2021/12/04 01:00:57;;;;;;;16.30;7.67;;;1.60;99.90;;;;;;5053836;28;20049;-67
2021/12/04 01:03:25;;;;;;;17.23;8.67;;;1.70;99.90;;;;;;5053481;28;20099;-67
2021/12/04 01:05:52;;;;;;;15.67;7.90;;;1.70;99.90;;;;;;5052644;28;20134;-68
2021/12/04 01:08:19;;;;;;;15.33;8.33;;;1.70;99.90;;;;;;5053622;28;20567;-68
2021/12/04 01:10:46;;;;;;;16.30;7.93;;;1.70;99.90;;;;;;5053588;28;20431;-67
2021/12/04 01:13:13;;;;;;;15.47;8.30;;;1.60;99.90;;;;;;5053312;28;20049;-67
2021/12/04 01:15:42;;;;;;;18.27;9.30;;;1.60;99.90;;;;;;5052710;28;20117;-67
2021/12/04 01:18:10;;;;;;;16.07;8.73;;;1.60;99.90;;;;;;5053422;28;20049;-67
2021/12/04 01:20:39;;;;;;;16.73;8.33;;;1.60;99.90;;;;;;5053952;28;20053;-67
2021/12/04 01:23:06;;;;;;;17.23;9.07;;;1.60;99.90;;;;;;5054885;28;20084;-69
2021/12/04 01:25:35;;;;;;;19.03;9.43;;;1.60;99.90;;;;;;5053434;28;20049;-67
2021/12/04 01:28:03;;;;;;;17.40;8.70;;;1.60;99.90;;;;;;5053921;28;20176;-67
2021/12/04 01:30:30;;;;;;;19.40;8.80;;;1.60;99.90;;;;;;5053719;28;20083;-67
2021/12/04 01:32:57;;;;;;;18.00;9.10;;;1.60;99.90;;;;;;5053060;28;20115;-67
2021/12/04 01:35:26;;;;;;;18.87;8.93;;;1.60;99.90;;;;;;5052549;28;20489;-67
2021/12/04 01:37:53;;;;;;;17.90;8.93;;;1.60;99.90;;;;;;5053342;28;20489;-67
2021/12/04 01:40:20;;;;;;;16.73;8.20;;;1.50;99.90;;;;;;5053324;28;20056;-67
2021/12/04 01:42:47;;;;;;;14.90;8.73;;;1.50;99.90;;;;;;5052758;28;20558;-67
2021/12/04 01:45:17;;;;;;;19.10;8.00;;;1.40;99.90;;;;;;5052768;28;20049;-67
2021/12/04 01:47:44;;;;;;;16.07;8.57;;;1.40;99.90;;;;;;5052702;28;20090;-67
2021/12/04 01:50:11;;;;;;;18.13;10.40;;;1.20;99.90;;;;;;5052984;28;20052;-67
2021/12/04 01:52:39;;;;;;;22.20;10.23;;;1.10;99.90;;;;;;5052951;28;20053;-67
2021/12/04 01:55:08;;;;;;;24.43;11.60;;;1.10;99.90;;;;;;5052239;28;20099;-67
2021/12/04 01:57:35;;;;;;;22.17;10.50;;;1.00;99.90;;;;;;5053179;28;20067;-67
2021/12/04 02:00:05;;;;;;;24.80;10.70;;;0.90;99.90;;;;;;5069637;28;20049;-71
2021/12/04 02:02:32;;;;;;;21.60;10.80;;;1.00;99.90;;;;;;5066957;28;20049;-68
2021/12/04 02:04:59;;;;;;;25.57;11.93;;;0.90;99.90;;;;;;5065813;28;20049;-68
2021/12/04 02:07:26;;;;;;;22.50;9.87;;;0.90;99.90;;;;;;5051484;28;20049;-68
2021/12/04 02:09:54;;;;;;;23.27;10.97;;;0.90;99.90;;;;;;5052440;28;20045;-67
2021/12/04 02:12:21;;;;;;;22.30;11.63;;;0.90;99.90;;;;;;5052398;28;20522;-68
2021/12/04 02:14:48;;;;;;;25.43;11.07;;;0.90;99.90;;;;;;5051991;28;20044;-67
2021/12/04 02:17:15;;;;;;;25.83;12.07;;;0.90;99.90;;;;;;5052391;28;20106;-67
2021/12/04 02:19:42;;;;;;;22.07;11.30;;;0.80;99.90;;;;;;5052552;28;20150;-67
2021/12/04 02:22:11;;;;;;;22.73;11.43;;;0.80;99.90;;;;;;5052284;28;20076;-67
2021/12/04 02:24:38;;;;;;;23.40;11.67;;;0.70;99.90;;;;;;5052037;28;20102;-67
2021/12/04 02:27:05;;;;;;;28.03;12.77;;;0.80;99.90;;;;;;5051716;28;20049;-67
2021/12/04 02:29:32;;;;;;;23.93;11.53;;;0.80;99.90;;;;;;5052292;28;20089;-67
2021/12/04 02:32:00;;;;;;;25.83;12.50;;;0.80;99.90;;;;;;5052028;28;20049;-67
2021/12/04 02:34:31;;;;;;;24.93;12.43;;;0.80;99.90;;;;;;5051034;28;20049;-67
2021/12/04 02:36:59;;;;;;;23.10;11.27;;;0.80;99.90;;;;;;5050739;28;20077;-67
2021/12/04 02:39:31;;;;;;;22.07;11.00;;;0.70;99.90;;;;;;5050896;28;20092;-67
2021/12/04 02:41:59;;;;;;;22.97;11.70;;;0.70;99.90;;;;;;5050971;28;20065;-67
2021/12/04 02:44:34;;;;;;;25.10;12.33;;;0.70;99.90;;;;;;5050764;28;20072;-67
2021/12/04 02:47:02;;;;;;;22.40;11.90;;;0.60;99.90;;;;;;5050687;28;20065;-67
2021/12/04 02:49:29;;;;;;;26.10;12.00;;;0.60;99.90;;;;;;5050999;28;20389;-67
2021/12/04 02:51:55;;;;;;;24.70;11.60;;;0.60;99.90;;;;;;5050785;28;20551;-67
2021/12/04 02:54:22;;;;;;;27.63;11.80;;;0.50;99.90;;;;;;5050195;28;20099;-67
2021/12/04 02:56:51;;;;;;;26.03;12.00;;;0.50;99.90;;;;;;5050177;28;20071;-67
2021/12/04 02:59:18;;;;;;;27.20;13.37;;;0.60;99.90;;;;;;5050662;28;20053;-67
2021/12/04 03:01:52;;;;;;;25.67;13.00;;;0.60;99.90;;;;;;5050636;28;20049;-67
2021/12/04 03:04:21;;;;;;;27.37;11.87;;;0.60;99.90;;;;;;5050260;28;20103;-67
2021/12/04 03:06:48;;;;;;;22.93;11.47;;;0.60;99.90;;;;;;5050164;28;20076;-67
2021/12/04 03:09:15;;;;;;;27.03;13.47;;;0.60;99.90;;;;;;5050324;28;20098;-67
2021/12/04 03:11:42;;;;;;;24.03;11.97;;;0.70;99.90;;;;;;5050188;28;20579;-67
2021/12/04 03:14:11;;;;;;;25.33;11.97;;;0.60;99.90;;;;;;5148385;22;20053;-74
2021/12/04 03:16:40;;;;;;;24.37;12.40;;;0.60;99.90;;;;;;5051960;28;20115;-73
2021/12/04 03:19:07;;;;;;;26.43;10.87;;;0.60;99.90;;;;;;5050492;28;20178;-73
2021/12/04 03:21:36;;;;;;;25.63;11.70;;;0.60;99.90;;;;;;5054426;28;20160;-75
2021/12/04 03:24:06;;;;;;;22.70;10.93;;;0.70;99.90;;;;;;5054909;28;20060;-72
2021/12/04 03:26:34;;;;;;;23.93;11.60;;;0.70;99.90;;;;;;5055439;28;20060;-71
2021/12/04 03:29:05;;;;;;;22.53;11.07;;;0.70;99.90;;;;;;5055198;28;20164;-71
2021/12/04 03:31:45;;;;;;;25.23;12.10;;;0.70;99.90;;;;;;5055168;28;20056;-70
2021/12/04 03:40:08;;;;;;;27.20;12.63;;;0.70;99.90;;;;;;5054295;28;20048;-72
2021/12/04 03:42:37;;;;;;;23.00;12.00;;;0.70;99.90;;;;;;5054386;28;21944;-69
2021/12/04 03:45:06;;;;;;;22.07;10.53;;;0.60;99.90;;;;;;5054289;28;20044;-70
2021/12/04 03:47:34;;;;;;;22.33;12.00;;;0.70;99.90;;;;;;5054610;28;20493;-72
2021/12/04 03:50:01;;;;;;;23.07;11.57;;;0.60;99.90;;;;;;5054531;28;20131;-71
2021/12/04 03:52:28;;;;;;;24.20;11.83;;;0.60;99.90;;;;;;5054656;28;20068;-70
2021/12/04 03:54:55;;;;;;;24.77;12.43;;;0.60;99.90;;;;;;5053568;28;20045;-71
2021/12/04 03:57:22;;;;;;;22.20;11.40;;;0.70;99.90;;;;;;5054408;28;20052;-75
2021/12/04 03:59:50;;;;;;;26.53;11.83;;;0.60;99.90;;;;;;5054173;28;20061;-70
2021/12/04 04:02:18;;;;;;;27.40;12.83;;;0.60;99.90;;;;;;5054925;28;20080;-71
2021/12/04 04:04:46;;;;;;;26.83;12.63;;;0.60;99.90;;;;;;5054268;28;20068;-70
2021/12/04 04:07:14;;;;;;;24.40;12.87;;;0.60;99.90;;;;;;5053888;28;20053;-70
2021/12/04 04:09:41;;;;;;;28.30;12.73;;;0.60;99.90;;;;;;5054353;28;20056;-74
2021/12/04 04:12:08;;;;;;;25.13;11.80;;;0.60;99.90;;;;;;5054398;28;20091;-70
2021/12/04 04:14:35;;;;;;;26.63;12.77;;;0.50;99.90;;;;;;5054008;28;20068;-74
2021/12/04 04:17:03;;;;;;;26.63;12.77;;;0.60;99.90;;;;;;5053534;28;20053;-70
2021/12/04 04:19:30;;;;;;;27.40;12.47;;;0.60;99.90;;;;;;5054213;28;20107;-71
2021/12/04 04:21:58;;;;;;;29.40;12.60;;;0.60;99.90;;;;;;5054131;28;20463;-71
2021/12/04 04:24:27;;;;;;;24.13;12.83;;;0.60;99.90;;;;;;5054745;28;20073;-70
2021/12/04 04:26:55;;;;;;;28.63;12.47;;;0.60;99.90;;;;;;5053043;28;20668;-71
2021/12/04 04:29:24;;;;;;;28.17;12.73;;;0.60;99.90;;;;;;5054708;28;20057;-71
2021/12/04 04:31:53;;;;;;;27.97;13.27;;;0.60;99.90;;;;;;5058855;28;20080;-70
2021/12/04 04:34:23;;;;;;;25.63;12.17;;;0.60;99.90;;;;;;5057656;28;20049;-71
2021/12/04 04:37:08;;;;;;;30.43;13.57;;;0.60;99.90;;;;;;5057233;28;20432;-72
2021/12/04 04:59:11;;;;;;;31.75;13.57;;;0.60;99.90;;;;;;5056944;28;20056;-73
2021/12/04 05:02:04;;;;;;;27.63;13.47;;;0.60;99.90;;;;;;5056846;28;20120;-71
2021/12/04 05:10:50;;;;;;;30.07;14.30;;;0.60;99.90;;;;;;5021325;28;20120;-71
2021/12/04 05:13:21;;;;;;;31.57;14.20;;;0.60;99.90;;;;;;5056537;28;20052;-72
2021/12/04 05:15:57;;;;;;;30.90;14.03;;;0.60;99.90;;;;;;5058143;28;20045;-74
2021/12/04 05:18:35;;;;;;;28.90;14.10;;;0.60;99.90;;;;;;5059158;28;20053;-74
2021/12/04 05:21:05;;;;;;;27.03;13.53;;;0.60;99.90;;;;;;5058767;28;20493;-73
2021/12/04 05:23:34;;;;;;;27.93;13.47;;;0.60;99.90;;;;;;5057305;28;20090;-74
2021/12/04 05:26:01;;;;;;;28.37;13.60;;;0.60;99.90;;;;;;5054127;28;20045;-73
2021/12/04 05:28:30;;;;;;;32.23;15.23;;;0.60;99.90;;;;;;5052467;28;20049;-74
2021/12/04 05:30:57;;;;;;;29.37;13.77;;;0.60;99.90;;;;;;5055389;28;20053;-74
2021/12/04 05:33:24;;;;;;;34.53;15.07;;;0.60;99.90;;;;;;5054116;28;20098;-74
2021/12/04 05:35:51;;;;;;;31.50;14.30;;;0.60;99.90;;;;;;5055733;28;20052;-74
2021/12/04 05:38:19;;;;;;;28.13;14.20;;;0.60;99.90;;;;;;5056742;28;20053;-74
2021/12/04 05:40:46;;;;;;;30.17;13.30;;;0.60;99.90;;;;;;5055087;28;20049;-78
2021/12/04 05:43:14;;;;;;;31.30;13.73;;;0.60;99.90;;;;;;5055041;28;20048;-73
2021/12/04 05:45:46;;;;;;;31.37;14.80;;;0.60;99.90;;;;;;5056030;28;20045;-74
2021/12/04 05:48:15;;;;;;;30.73;14.53;;;0.60;99.90;;;;;;5056615;28;20053;-75
2021/12/04 05:51:00;;;;;;;26.10;13.33;;;0.60;99.90;;;;;;5055493;28;20198;-73
2021/12/04 05:53:29;;;;;;;30.60;13.73;;;0.60;99.90;;;;;;5053515;28;20124;-73
2021/12/04 05:55:56;;;;;;;26.70;13.57;;;0.60;99.90;;;;;;5055092;28;20122;-73
2021/12/04 05:58:26;;;;;;;30.47;13.83;;;0.60;99.90;;;;;;5056027;28;20472;-76
2021/12/04 06:00:56;;;;;;;31.13;15.60;;;0.60;99.90;;;;;;5057265;28;20057;-73
2021/12/04 06:03:23;;;;;;;28.53;13.97;;;0.60;99.90;;;;;;5056578;28;20434;-72
2021/12/04 06:05:50;;;;;;;26.50;13.60;;;0.70;99.90;;;;;;5055416;28;20110;-74
2021/12/04 06:08:19;;;;;;;26.17;13.57;;;0.60;99.90;;;;;;5056267;28;20061;-72
2021/12/04 06:10:47;;;;;;;27.57;14.50;;;0.70;99.90;;;;;;5056930;28;20049;-75
2021/12/04 06:13:14;;;;;;;29.63;14.27;;;0.70;99.90;;;;;;5056142;28;20394;-72
2021/12/04 06:15:41;;;;;;;27.77;13.27;;;0.70;99.90;;;;;;5055036;28;20052;-75
2021/12/04 06:18:10;;;;;;;25.47;13.63;;;0.70;99.90;;;;;;5056731;28;20049;-72
2021/12/04 06:23:22;;;;;;;30.00;13.33;;;0.70;99.90;;;;;;5055356;28;20107;-73
2021/12/04 06:25:49;;;;;;;25.73;12.57;;;0.70;99.90;;;;;;5055862;28;20122;-73
2021/12/04 06:28:17;;;;;;;26.60;13.90;;;0.70;99.90;;;;;;5055985;28;20056;-73
2021/12/04 06:30:44;;;;;;;26.17;13.33;;;0.70;99.90;;;;;;5055456;28;20057;-74
2021/12/04 06:33:15;;;;;;;25.77;13.20;;;0.70;99.90;;;;;;5055088;28;20049;-73
2021/12/04 06:35:42;;;;;;;30.10;13.70;;;0.70;99.90;;;;;;5058163;28;20059;-74
2021/12/04 06:38:12;;;;;;;27.27;13.93;;;0.80;99.90;;;;;;5056975;28;20057;-75
2021/12/04 06:40:40;;;;;;;33.53;14.20;;;0.70;99.90;;;;;;5056757;28;20049;-76
2021/12/04 06:43:08;;;;;;;28.37;13.77;;;0.80;99.90;;;;;;5056725;28;20045;-76
2021/12/04 06:45:38;;;;;;;27.77;13.50;;;0.80;99.90;;;;;;5055705;28;20055;-74
2021/12/04 06:48:09;;;;;;;26.77;13.13;;;0.70;99.90;;;;;;5057394;28;20092;-75
2021/12/04 06:50:42;;;;;;;23.47;12.40;;;0.80;99.90;;;;;;5057284;28;20053;-74
2021/12/04 06:53:19;;;;;;;27.40;13.50;;;0.80;99.90;;;;;;5056035;28;20571;-75
2021/12/04 06:55:49;;;;;;;25.57;13.10;;;0.70;99.90;;;;;;5056144;28;20477;-74
2021/12/04 06:58:16;;;;;;;24.97;12.47;;;0.70;99.90;;;;;;5055224;28;20527;-74
2021/12/04 07:00:43;;;;;;;29.57;13.60;;;0.70;99.90;;;;;;5055460;28;20084;-74
2021/12/04 07:03:10;;;;;;;26.23;13.43;;;0.70;99.90;;;;;;5055843;28;20103;-74
2021/12/04 07:05:39;;;;;;;28.20;13.63;;;0.80;99.90;;;;;;5055612;28;20103;-74
2021/12/04 07:08:06;;;;;;;24.60;12.80;;;0.80;99.90;;;;;;5056336;28;20095;-73
2021/12/04 07:10:34;;;;;;;27.83;13.00;;;0.80;99.90;;;;;;5056335;28;20049;-74
2021/12/04 07:13:01;;;;;;;25.87;12.53;;;0.80;99.90;;;;;;5056283;28;20076;-73
2021/12/04 07:15:31;;;;;;;23.43;12.40;;;0.80;99.90;;;;;;5054114;28;20041;-74
2021/12/04 07:17:58;;;;;;;25.73;12.93;;;0.80;99.90;;;;;;5053087;28;20048;-74
2021/12/04 07:20:26;;;;;;;22.73;12.13;;;0.80;99.90;;;;;;5053370;28;20076;-74
2021/12/04 07:22:54;;;;;;;26.13;12.87;;;0.80;99.90;;;;;;5054122;28;20098;-73
2021/12/04 07:25:21;;;;;;;22.87;11.37;;;0.80;99.90;;;;;;5053878;28;20045;-73
2021/12/04 07:27:50;;;;;;;23.17;11.93;;;0.80;99.90;;;;;;5051593;28;20049;-74
2021/12/04 07:30:18;;;;;;;25.03;12.23;;;0.80;99.90;;;;;;5056045;28;20061;-73
2021/12/04 07:32:45;;;;;;;23.97;11.87;;;0.80;99.90;;;;;;5056665;28;20517;-73
2021/12/04 07:35:13;;;;;;;25.83;12.23;;;0.90;99.90;;;;;;5055205;28;20063;-74
2021/12/04 07:37:41;;;;;;;25.23;12.70;;;0.80;99.90;;;;;;5056023;28;20099;-76
2021/12/04 07:40:11;;;;;;;25.17;12.10;;;0.90;99.90;;;;;;5056802;28;20459;-74
2021/12/04 07:42:38;;;;;;;20.37;10.53;;;0.90;99.90;;;;;;5055010;28;20056;-73
2021/12/04 07:45:07;;;;;;;20.97;12.17;;;0.90;99.90;;;;;;5054337;28;20045;-75
2021/12/04 07:47:34;;;;;;;20.23;10.47;;;1.00;99.90;;;;;;5055482;28;20053;-76
2021/12/04 07:50:01;;;;;;;23.17;11.47;;;0.90;99.90;;;;;;5054293;28;20075;-73
2021/12/04 07:52:28;;;;;;;20.40;11.77;;;1.00;99.90;;;;;;5054799;28;20090;-74
2021/12/04 07:54:55;;;;;;;21.20;10.33;;;0.90;99.90;;;;;;5054500;28;20053;-75
2021/12/04 07:57:25;;;;;;;20.60;11.03;;;1.00;99.90;;;;;;5056037;28;20048;-74
2021/12/04 07:59:52;;;;;;;22.53;11.40;;;1.00;99.90;;;;;;5056964;28;20056;-75
2021/12/04 08:02:20;;;;;;;23.93;11.47;;;1.00;99.90;;;;;;5056927;28;20044;-75
2021/12/04 08:04:47;;;;;;;23.80;12.10;;;1.10;99.90;;;;;;5056914;28;20053;-75
2021/12/04 08:07:14;;;;;;;19.63;10.40;;;1.10;99.90;;;;;;5060235;28;20049;-75
2021/12/04 08:09:41;;;;;;;20.30;10.97;;;1.20;99.90;;;;;;5058396;28;20056;-75
2021/12/04 08:12:10;;;;;;;20.80;11.33;;;1.20;99.90;;;;;;5057807;28;20190;-75
2021/12/04 08:14:39;;;;;;;22.43;11.60;;;1.20;99.90;;;;;;5059211;28;20421;-76
2021/12/04 08:17:06;;;;;;;21.90;11.40;;;1.20;99.90;;;;;;5058472;28;20460;-76
2021/12/04 08:19:33;;;;;;;21.10;10.53;;;1.30;99.90;;;;;;5058041;28;20065;-77
2021/12/04 08:22:00;;;;;;;20.23;10.73;;;1.30;99.90;;;;;;5058904;28;20056;-75
2021/12/04 08:24:28;;;;;;;22.43;9.93;;;1.30;99.90;;;;;;5059537;28;20374;-75
2021/12/04 08:26:55;;;;;;;32.83;10.67;;;1.30;99.90;;;;;;5057296;28;20053;-75
2021/12/04 08:29:23;;;;;;;18.60;10.47;;;1.30;99.90;;;;;;5058338;28;20493;-76
2021/12/04 08:31:51;;;;;;;19.87;10.73;;;1.40;99.90;;;;;;5058387;28;20147;-75
2021/12/04 08:34:19;;;;;;;21.83;11.47;;;1.40;99.90;;;;;;5058130;28;20045;-75
2021/12/04 08:36:46;;;;;;;22.23;11.53;;;1.50;99.90;;;;;;5057492;28;20045;-75
2021/12/04 08:39:13;;;;;;;22.03;10.67;;;1.40;99.90;;;;;;5058045;28;20412;-75
2021/12/04 08:41:41;;;;;;;18.33;9.93;;;1.60;99.90;;;;;;5058817;28;20055;-75
2021/12/04 08:44:09;;;;;;;19.80;11.27;;;1.60;99.90;;;;;;5058188;28;20067;-76
2021/12/04 08:46:37;;;;;;;19.23;10.37;;;1.60;99.90;;;;;;5057398;28;20053;-75
2021/12/04 08:49:07;;;;;;;21.40;10.80;;;1.70;99.90;;;;;;5057852;28;20087;-75
2021/12/04 08:51:35;;;;;;;22.70;10.07;;;1.60;99.90;;;;;;5057384;28;20049;-75
2021/12/04 08:54:02;;;;;;;19.43;10.23;;;1.60;99.90;;;;;;5057602;28;20193;-75
2021/12/04 08:56:30;;;;;;;17.47;10.23;;;1.50;99.90;;;;;;5056509;28;20102;-75
2021/12/04 08:58:57;;;;;;;24.27;9.90;;;1.60;99.90;;;;;;5056366;28;20092;-75
2021/12/04 09:01:30;;;;;;;20.73;9.57;;;1.50;99.90;;;;;;5054282;28;20071;-75
2021/12/04 09:04:01;;;;;;;21.60;10.57;;;1.60;99.90;;;;;;5055845;28;20107;-74
2021/12/04 09:06:30;;;;;;;18.33;9.67;;;1.60;99.90;;;;;;5056081;28;20455;-74
2021/12/04 09:08:57;;;;;;;24.77;9.93;;;1.60;99.90;;;;;;5055444;28;20471;-73
2021/12/04 09:11:30;;;;;;;19.53;10.10;;;1.60;99.90;;;;;;5056946;28;20057;-74
2021/12/04 09:13:58;;;;;;;18.00;10.00;;;1.70;99.90;;;;;;5050979;22;20041;-67
2021/12/04 09:16:26;;;;;;;17.83;9.43;;;1.80;99.90;;;;;;5032252;28;20081;-68
2021/12/04 09:18:55;;;;;;;17.27;9.23;;;1.80;99.90;;;;;;5034714;28;20045;-67
2021/12/04 09:21:23;;;;;;;19.90;9.97;;;1.80;99.90;;;;;;5033929;28;20059;-69
2021/12/04 09:24:00;;;;;;;13.93;8.40;;;1.90;99.90;;;;;;5033574;28;20521;-67
2021/12/04 09:26:38;;;;;;;16.77;9.27;;;1.90;99.90;;;;;;5033140;28;20056;-66
2021/12/04 09:29:11;;;;;;;19.40;9.00;;;2.10;99.90;;;;;;5033891;28;20061;-67
2021/12/04 10:02:08;;;;;;;15.53;7.93;;;2.60;99.90;;;;;;5002412;28;20053;-68
2021/12/04 10:19:00;;;;;;;13.60;7.17;;;2.80;99.90;;;;;;5006026;28;20148;-69
2021/12/04 10:21:45;;;;;;;12.87;7.47;;;2.90;99.90;;;;;;5032934;28;20064;-67
2021/12/04 10:32:45;;;;;;;14.90;7.97;;;2.80;99.90;;;;;;5032225;28;20060;-68
2021/12/04 10:35:15;;;;;;;14.83;8.17;;;2.90;99.90;;;;;;5031694;28;20056;-68
2021/12/04 10:37:48;;;;;;;15.90;7.63;;;2.90;99.90;;;;;;5032054;28;20571;-69
2021/12/04 10:40:17;;;;;;;15.80;8.17;;;2.90;99.90;;;;;;5032278;28;20060;-69
2021/12/04 10:42:50;;;;;;;18.00;8.47;;;2.70;99.90;;;;;;5032346;28;20100;-69
2021/12/04 10:45:19;;;;;;;14.87;8.37;;;2.80;99.90;;;;;;5032092;28;20140;-68
2021/12/04 10:47:55;;;;;;;15.83;8.93;;;2.80;99.90;;;;;;5032466;28;20169;-68
2021/12/04 10:50:31;;;;;;;15.05;8.10;;;2.70;99.90;;;;;;5031876;28;20057;-68
2021/12/04 10:52:59;;;;;;;16.30;8.83;;;2.70;99.90;;;;;;5035447;28;20076;-70
2021/12/04 10:55:31;;;;;;;18.50;8.30;;;2.80;99.90;;;;;;5044732;28;20420;-68
2021/12/04 11:01:03;;;;;;;16.60;9.23;;;2.90;99.90;;;;;;5039285;28;20428;-69
2021/12/04 11:26:30;;;;;;;17.03;9.40;;;2.70;99.90;;;;;;5015936;28;20049;-68
2021/12/04 11:40:33;;;;;;;17.37;9.67;;;2.70;99.90;;;;;;5135146;27;20823;-68
2021/12/04 11:43:03;;;;;;;20.40;10.83;;;2.70;99.90;;;;;;5095696;28;20245;-69
2021/12/04 11:45:44;;;;;;;20.00;10.40;;;2.70;99.90;;;;;;5108132;28;20089;-68
2021/12/04 11:48:11;;;;;;;16.90;9.43;;;2.60;99.90;;;;;;5112197;28;20048;-68
2021/12/04 11:50:41;;;;;;;18.70;10.20;;;2.50;99.90;;;;;;5116387;28;20407;-68
2021/12/04 11:53:16;;;;;;;18.87;10.20;;;2.60;99.90;;;;;;5113744;28;20047;-68
2021/12/04 11:55:47;;;;;;;20.40;10.57;;;2.60;99.90;;;;;;5116344;28;20059;-68
2021/12/04 11:58:19;;;;;;;18.93;9.80;;;2.70;99.90;;;;;;5111727;28;20044;-69
2021/12/04 12:00:47;;;;;;;22.23;10.40;;;2.70;99.90;;;;;;5110500;28;20453;-68
2021/12/04 12:03:18;;;;;;;22.60;10.50;;;2.90;99.90;;;;;;5108915;28;20051;-68
2021/12/04 12:05:47;;;;;;;17.80;10.40;;;2.90;99.90;;;;;;5107994;28;20105;-68
2021/12/04 12:08:27;;;;;;;20.57;10.43;;;2.90;99.90;;;;;;5108081;28;20051;-68
2021/12/04 12:10:58;;;;;;;19.03;10.37;;;2.90;99.90;;;;;;5108191;28;20116;-69
2021/12/04 12:13:29;;;;;;;20.17;10.43;;;2.90;99.90;;;;;;5108221;28;20052;-68
2021/12/04 12:16:04;;;;;;;20.23;10.87;;;2.90;99.90;;;;;;5107720;28;20052;-69
2021/12/04 12:18:31;;;;;;;19.90;10.73;;;2.80;99.90;;;;;;5108190;28;20407;-68
2021/12/04 12:21:09;;;;;;;18.80;10.63;;;2.90;99.90;;;;;;5107355;28;20089;-68
2021/12/04 12:24:11;;;;;;;23.27;11.10;;;2.90;99.90;;;;;;5107647;28;20485;-68
2021/12/04 12:26:45;;;;;;;22.17;11.18;;;2.80;99.90;;;;;;5107265;28;20109;-68
2021/12/04 12:32:42;;;;;;;20.10;10.73;;;2.90;99.90;;;;;;5107821;28;20050;-68
2021/12/04 12:38:07;;;;;;;19.80;10.77;;;2.70;99.90;;;;;;5107539;28;20210;-68
2021/12/04 12:40:35;;;;;;;17.00;9.80;;;2.70;99.90;;;;;;5108081;28;20079;-69
2021/12/04 12:43:17;;;;;;;18.30;9.63;;;2.70;99.90;;;;;;5107264;28;20568;-69
2021/12/04 12:45:55;;;;;;;17.40;9.60;;;2.70;99.90;;;;;;5107232;28;20048;-69
2021/12/04 12:48:22;;;;;;;19.27;10.10;;;2.80;99.90;;;;;;5107198;28;20492;-68
2021/12/04 12:50:49;;;;;;;14.50;8.20;;;2.70;99.90;;;;;;5098175;27;20117;-69
2021/12/04 12:53:20;;;;;;;18.33;10.30;;;2.70;99.90;;;;;;5093981;28;20110;-68
2021/12/04 12:55:53;;;;;;;19.60;10.53;;;2.80;99.90;;;;;;5096011;28;20098;-68
2021/12/04 12:58:24;;;;;;;20.77;10.93;;;2.80;99.90;;;;;;5094899;28;20426;-68
2021/12/04 13:12:01;;;;;;;20.90;11.10;;;2.70;99.90;;;;;;5093041;28;20076;-68
2021/12/04 13:14:32;;;;;;;25.47;12.17;;;2.80;99.90;;;;;;5093344;28;20099;-68
2021/12/04 13:17:06;;;;;;;19.30;10.87;;;2.80;99.90;;;;;;5093012;28;20079;-68
2021/12/04 13:19:36;;;;;;;20.73;10.77;;;2.80;99.90;;;;;;5093617;28;20079;-68
2021/12/04 13:22:06;;;;;;;24.57;11.67;;;2.90;99.90;;;;;;5093540;28;20056;-70
2021/12/04 13:24:36;;;;;;;21.43;11.63;;;2.80;99.90;;;;;;5093139;28;20432;-68
2021/12/04 13:29:40;;;;;;;22.03;11.13;;;2.80;99.90;;;;;;5110288;28;20062;-70
2021/12/04 13:32:11;;;;;;;23.03;11.97;;;2.90;99.90;;;;;;5110033;28;20073;-69
2021/12/04 13:34:40;;;;;;;21.83;11.00;;;2.80;99.90;;;;;;5094743;28;20105;-68
2021/12/04 13:37:08;;;;;;;20.63;11.23;;;2.80;99.90;;;;;;5093270;28;20109;-69
2021/12/04 13:39:36;;;;;;;21.20;11.40;;;2.80;99.90;;;;;;5092815;28;20044;-68
2021/12/04 13:42:04;;;;;;;23.97;11.40;;;2.80;99.90;;;;;;5092669;28;20461;-68
2021/12/04 13:44:33;;;;;;;17.03;9.17;;;2.80;99.90;;;;;;5092263;28;20139;-68
2021/12/04 13:47:04;;;;;;;21.40;11.07;;;2.80;99.90;;;;;;5092104;28;20052;-68
2021/12/04 13:49:34;;;;;;;20.37;10.40;;;2.80;99.90;;;;;;5092507;28;20090;-68
2021/12/04 13:52:05;;;;;;;18.37;9.80;;;2.80;99.90;;;;;;5092637;28;20537;-69
2021/12/04 13:54:36;;;;;;;17.90;9.73;;;2.90;99.90;;;;;;5092268;28;20052;-69
2021/12/04 13:57:09;;;;;;;20.10;10.33;;;2.90;99.90;;;;;;5091711;28;20085;-68
2021/12/04 13:59:36;;;;;;;20.93;10.73;;;2.90;99.90;;;;;;5092260;28;20040;-68
2021/12/04 14:02:05;;;;;;;23.00;11.13;;;2.90;99.90;;;;;;5091563;28;20109;-68
2021/12/04 14:04:33;;;;;;;19.37;9.83;;;2.90;99.90;;;;;;5092496;28;20059;-68
2021/12/04 14:07:03;;;;;;;17.97;10.07;;;2.90;99.90;;;;;;5092122;28;20066;-68
2021/12/04 14:09:34;;;;;;;19.10;10.57;;;2.90;99.90;;;;;;5092264;28;20087;-68
2021/12/04 14:12:02;;;;;;;19.83;10.20;;;2.90;99.90;;;;;;5092286;28;20393;-68
2021/12/04 14:14:31;;;;;;;19.00;9.30;;;3.00;99.90;;;;;;5092306;28;20090;-68
2021/12/04 14:17:08;;;;;;;18.97;10.00;;;3.00;99.90;;;;;;5100302;28;20058;-71
2021/12/04 14:19:36;;;;;;;22.30;10.57;;;2.90;99.90;;;;;;5113609;28;20048;-68
2021/12/04 14:22:05;;;;;;;20.70;10.47;;;2.90;99.90;;;;;;5092950;28;20048;-68
2021/12/04 14:24:35;;;;;;;19.43;10.10;;;2.90;99.90;;;;;;5092451;28;20059;-67
2021/12/04 14:27:03;;;;;;;23.90;10.13;;;3.00;99.90;;;;;;5091617;28;20059;-68
2021/12/04 14:29:36;;;;;;;18.93;10.57;;;3.00;99.90;;;;;;5092060;28;20048;-68
2021/12/04 14:32:06;;;;;;;17.60;9.33;;;3.00;99.90;;;;;;5091556;28;20044;-68
2021/12/04 14:34:34;;;;;;;18.47;9.47;;;3.00;99.90;;;;;;5091261;28;20416;-68
2021/12/04 14:37:04;;;;;;;20.33;9.73;;;3.00;99.90;;;;;;5090987;28;20047;-68
2021/12/04 14:39:31;;;;;;;18.57;10.40;;;3.00;99.90;;;;;;5091514;28;20096;-68
2021/12/04 14:41:58;;;;;;;17.13;10.03;;;3.00;99.90;;;;;;5091693;28;20047;-68
2021/12/04 14:44:26;;;;;;;18.40;8.93;;;3.00;99.90;;;;;;5091361;28;20094;-68
2021/12/04 14:46:53;;;;;;;20.43;10.43;;;3.00;99.90;;;;;;5090973;28;20044;-68
2021/12/04 14:49:22;;;;;;;18.60;10.00;;;3.00;99.90;;;;;;5091214;28;20066;-68
2021/12/04 14:51:49;;;;;;;20.37;9.37;;;3.00;99.90;;;;;;5091468;28;20056;-68
2021/12/04 14:54:27;;;;;;;19.37;10.93;;;3.00;99.90;;;;;;5091317;28;20396;-68
2021/12/04 14:56:54;;;;;;;23.37;10.47;;;3.00;99.90;;;;;;5090998;28;20059;-69
2021/12/04 14:59:22;;;;;;;21.50;10.60;;;3.00;99.90;;;;;;5091351;28;20098;-68
2021/12/04 15:01:49;;;;;;;22.73;10.90;;;3.10;99.90;;;;;;5091076;28;20059;-68
2021/12/04 15:04:16;;;;;;;22.73;10.73;;;3.10;99.90;;;;;;5091116;28;20052;-68
2021/12/04 15:06:44;;;;;;;20.13;11.63;;;3.10;99.90;;;;;;5090452;28;20105;-71
2021/12/04 15:09:14;;;;;;;20.43;11.50;;;3.10;99.90;;;;;;5091137;28;20451;-68
2021/12/04 15:11:44;;;;;;;25.53;12.57;;;3.10;99.90;;;;;;5091240;28;20047;-68
2021/12/04 15:31:26;;;;;;;21.53;10.53;;;3.20;99.90;;;;;;5102193;22;20109;-75
2021/12/04 15:33:56;;;;;;;20.43;10.77;;;3.30;99.90;;;;;;5093679;28;20058;-78
2021/12/04 15:36:25;;;;;;;20.90;10.97;;;3.20;99.90;;;;;;5093819;28;20051;-77
2021/12/04 15:38:54;;;;;;;18.63;10.87;;;3.30;99.90;;;;;;5094093;28;20044;-75
2021/12/04 15:41:39;;;;;;;18.23;10.03;;;3.30;99.90;;;;;;5094293;28;20058;-75
2021/12/04 15:44:22;;;;;;;21.03;10.30;;;3.30;99.90;;;;;;5094726;28;20120;-73